sensor_id;sensor_type;location;lat;lon;timestamp;P1;durP1;ratioP1;P2;durP2;ratioP2
42420;SDS011;28063;48.140;11.588;2022-12-29T00:01:18;1.30;;;1.10;;
42420;SDS011;28063;48.140;11.588;2022-12-29T00:03:45;1.35;;;0.90;;
42420;SDS011;28063;48.140;11.588;2022-12-29T00:06:11;2.78;;;0.80;;
42420;SDS011;28063;48.140;11.588;2022-12-29T00:08:37;1.30;;;0.93;;
42420;SDS011;28063;48.140;11.588;2022-12-29T00:11:06;1.20;;;0.85;;
42420;SDS011;28063;48.140;11.588;2022-12-29T00:13:33;1.02;;;0.80;;
42420;SDS011;28063;48.140;11.588;2022-12-29T00:16:18;4.43;;;0.77;;
42420;SDS011;28063;48.140;11.588;2022-12-29T00:18:43;0.70;;;0.60;;
42420;SDS011;28063;48.140;11.588;2022-12-29T00:21:19;0.95;;;0.70;;
42420;SDS011;28063;48.140;11.588;2022-12-29T00:24:05;0.77;;;0.70;;
42420;SDS011;28063;48.140;11.588;2022-12-29T00:26:55;2.15;;;0.75;;
42420;SDS011;28063;48.140;11.588;2022-12-29T00:29:47;0.80;;;0.80;;
42420;SDS011;28063;48.140;11.588;2022-12-29T00:32:32;1.17;;;0.88;;
42420;SDS011;28063;48.140;11.588;2022-12-29T00:35:29;1.25;;;0.95;;
42420;SDS011;28063;48.140;11.588;2022-12-29T00:38:02;0.65;;;0.60;;
42420;SDS011;28063;48.140;11.588;2022-12-29T00:40:48;0.98;;;0.63;;
42420;SDS011;28063;48.140;11.588;2022-12-29T00:43:33;1.38;;;0.68;;
42420;SDS011;28063;48.140;11.588;2022-12-29T00:46:17;1.33;;;0.60;;
42420;SDS011;28063;48.140;11.588;2022-12-29T00:48:43;1.05;;;0.70;;
42420;SDS011;28063;48.140;11.588;2022-12-29T00:51:27;3.20;;;0.75;;
42420;SDS011;28063;48.140;11.588;2022-12-29T00:53:53;1.80;;;1.35;;
42420;SDS011;28063;48.140;11.588;2022-12-29T00:56:19;0.93;;;0.60;;
42420;SDS011;28063;48.140;11.588;2022-12-29T00:58:44;0.73;;;0.60;;
42420;SDS011;28063;48.140;11.588;2022-12-29T01:01:10;1.50;;;1.38;;
42420;SDS011;28063;48.140;11.588;2022-12-29T01:03:36;2.20;;;1.17;;
42420;SDS011;28063;48.140;11.588;2022-12-29T01:06:04;1.13;;;0.80;;
42420;SDS011;28063;48.140;11.588;2022-12-29T01:08:32;1.35;;;0.60;;
42420;SDS011;28063;48.140;11.588;2022-12-29T01:11:04;1.02;;;0.80;;
42420;SDS011;28063;48.140;11.588;2022-12-29T01:13:32;0.80;;;0.80;;
42420;SDS011;28063;48.140;11.588;2022-12-29T01:15:58;2.65;;;0.60;;
42420;SDS011;28063;48.140;11.588;2022-12-29T01:18:24;1.48;;;0.70;;
42420;SDS011;28063;48.140;11.588;2022-12-29T01:20:51;0.98;;;0.77;;
42420;SDS011;28063;48.140;11.588;2022-12-29T01:23:23;0.80;;;0.70;;
42420;SDS011;28063;48.140;11.588;2022-12-29T01:25:48;0.98;;;0.73;;
42420;SDS011;28063;48.140;11.588;2022-12-29T01:28:14;1.38;;;0.70;;
42420;SDS011;28063;48.140;11.588;2022-12-29T01:30:40;0.88;;;0.60;;
42420;SDS011;28063;48.140;11.588;2022-12-29T01:33:05;0.73;;;0.57;;
42420;SDS011;28063;48.140;11.588;2022-12-29T01:35:31;1.63;;;0.85;;
42420;SDS011;28063;48.140;11.588;2022-12-29T01:37:57;0.77;;;0.70;;
42420;SDS011;28063;48.140;11.588;2022-12-29T01:40:23;0.85;;;0.75;;
42420;SDS011;28063;48.140;11.588;2022-12-29T01:42:49;1.27;;;0.73;;
42420;SDS011;28063;48.140;11.588;2022-12-29T01:45:15;1.13;;;0.65;;
42420;SDS011;28063;48.140;11.588;2022-12-29T01:47:59;2.92;;;0.80;;
42420;SDS011;28063;48.140;11.588;2022-12-29T01:50:29;2.40;;;0.60;;
42420;SDS011;28063;48.140;11.588;2022-12-29T01:53:10;0.40;;;0.35;;
42420;SDS011;28063;48.140;11.588;2022-12-29T01:55:42;1.05;;;0.95;;
42420;SDS011;28063;48.140;11.588;2022-12-29T01:58:13;1.35;;;0.40;;
42420;SDS011;28063;48.140;11.588;2022-12-29T02:00:40;0.65;;;0.65;;
42420;SDS011;28063;48.140;11.588;2022-12-29T02:03:06;0.77;;;0.60;;
42420;SDS011;28063;48.140;11.588;2022-12-29T02:06:22;0.68;;;0.60;;
42420;SDS011;28063;48.140;11.588;2022-12-29T02:09:27;1.35;;;0.77;;
42420;SDS011;28063;48.140;11.588;2022-12-29T02:12:01;1.63;;;0.77;;
42420;SDS011;28063;48.140;11.588;2022-12-29T02:14:40;1.08;;;0.77;;
42420;SDS011;28063;48.140;11.588;2022-12-29T02:17:20;0.77;;;0.50;;
42420;SDS011;28063;48.140;11.588;2022-12-29T02:30:15;1.33;;;0.40;;
42420;SDS011;28063;48.140;11.588;2022-12-29T02:35:37;0.88;;;0.70;;
42420;SDS011;28063;48.140;11.588;2022-12-29T02:41:18;3.22;;;0.50;;
42420;SDS011;28063;48.140;11.588;2022-12-29T02:43:50;0.53;;;0.53;;
42420;SDS011;28063;48.140;11.588;2022-12-29T02:48:44;0.70;;;0.52;;
42420;SDS011;28063;48.140;11.588;2022-12-29T02:51:27;1.33;;;0.63;;
42420;SDS011;28063;48.140;11.588;2022-12-29T02:53:58;0.53;;;0.53;;
42420;SDS011;28063;48.140;11.588;2022-12-29T02:56:47;0.73;;;0.60;;
42420;SDS011;28063;48.140;11.588;2022-12-29T02:59:13;1.40;;;0.85;;
42420;SDS011;28063;48.140;11.588;2022-12-29T03:01:48;0.95;;;0.68;;
42420;SDS011;28063;48.140;11.588;2022-12-29T03:04:50;0.60;;;0.40;;
42420;SDS011;28063;48.140;11.588;2022-12-29T03:10:35;0.82;;;0.32;;
42420;SDS011;28063;48.140;11.588;2022-12-29T03:14:21;1.85;;;0.55;;
42420;SDS011;28063;48.140;11.588;2022-12-29T03:20:12;0.40;;;0.40;;
42420;SDS011;28063;48.140;11.588;2022-12-29T03:22:44;0.45;;;0.30;;
42420;SDS011;28063;48.140;11.588;2022-12-29T03:25:20;0.60;;;0.40;;
42420;SDS011;28063;48.140;11.588;2022-12-29T03:27:58;0.80;;;0.40;;
42420;SDS011;28063;48.140;11.588;2022-12-29T03:30:28;0.90;;;0.52;;
42420;SDS011;28063;48.140;11.588;2022-12-29T03:32:57;0.52;;;0.50;;
42420;SDS011;28063;48.140;11.588;2022-12-29T03:35:27;0.73;;;0.45;;
42420;SDS011;28063;48.140;11.588;2022-12-29T03:38:06;0.30;;;0.30;;
42420;SDS011;28063;48.140;11.588;2022-12-29T03:40:42;0.30;;;0.30;;
42420;SDS011;28063;48.140;11.588;2022-12-29T03:43:12;0.47;;;0.40;;
42420;SDS011;28063;48.140;11.588;2022-12-29T03:45:38;0.45;;;0.35;;
42420;SDS011;28063;48.140;11.588;2022-12-29T03:48:04;1.40;;;0.57;;
42420;SDS011;28063;48.140;11.588;2022-12-29T03:50:30;0.70;;;0.47;;
42420;SDS011;28063;48.140;11.588;2022-12-29T03:52:56;0.55;;;0.43;;
42420;SDS011;28063;48.140;11.588;2022-12-29T03:55:22;0.30;;;0.30;;
42420;SDS011;28063;48.140;11.588;2022-12-29T03:57:48;0.38;;;0.38;;
42420;SDS011;28063;48.140;11.588;2022-12-29T04:00:14;0.75;;;0.43;;
42420;SDS011;28063;48.140;11.588;2022-12-29T04:02:40;0.43;;;0.30;;
42420;SDS011;28063;48.140;11.588;2022-12-29T04:05:06;0.73;;;0.50;;
42420;SDS011;28063;48.140;11.588;2022-12-29T04:07:32;1.10;;;0.55;;
42420;SDS011;28063;48.140;11.588;2022-12-29T04:09:58;0.38;;;0.38;;
42420;SDS011;28063;48.140;11.588;2022-12-29T04:12:24;0.52;;;0.43;;
42420;SDS011;28063;48.140;11.588;2022-12-29T04:14:50;0.40;;;0.40;;
42420;SDS011;28063;48.140;11.588;2022-12-29T04:17:16;0.63;;;0.30;;
42420;SDS011;28063;48.140;11.588;2022-12-29T04:19:41;0.80;;;0.57;;
42420;SDS011;28063;48.140;11.588;2022-12-29T04:22:07;0.63;;;0.50;;
42420;SDS011;28063;48.140;11.588;2022-12-29T04:24:33;0.30;;;0.30;;
42420;SDS011;28063;48.140;11.588;2022-12-29T04:26:59;0.50;;;0.40;;
42420;SDS011;28063;48.140;11.588;2022-12-29T04:29:24;0.70;;;0.45;;
42420;SDS011;28063;48.140;11.588;2022-12-29T04:31:50;0.65;;;0.40;;
42420;SDS011;28063;48.140;11.588;2022-12-29T04:34:16;0.50;;;0.50;;
42420;SDS011;28063;48.140;11.588;2022-12-29T04:36:41;1.02;;;0.60;;
42420;SDS011;28063;48.140;11.588;2022-12-29T04:39:07;2.38;;;0.40;;
42420;SDS011;28063;48.140;11.588;2022-12-29T04:41:33;0.40;;;0.30;;
42420;SDS011;28063;48.140;11.588;2022-12-29T04:43:59;0.75;;;0.40;;
42420;SDS011;28063;48.140;11.588;2022-12-29T04:46:24;0.50;;;0.50;;
42420;SDS011;28063;48.140;11.588;2022-12-29T04:48:50;0.68;;;0.50;;
42420;SDS011;28063;48.140;11.588;2022-12-29T04:51:16;1.27;;;0.50;;
42420;SDS011;28063;48.140;11.588;2022-12-29T04:53:41;0.55;;;0.45;;
42420;SDS011;28063;48.140;11.588;2022-12-29T04:56:07;2.20;;;0.50;;
42420;SDS011;28063;48.140;11.588;2022-12-29T04:58:34;2.08;;;0.52;;
42420;SDS011;28063;48.140;11.588;2022-12-29T05:01:00;1.85;;;0.68;;
42420;SDS011;28063;48.140;11.588;2022-12-29T05:03:25;3.45;;;0.70;;
42420;SDS011;28063;48.140;11.588;2022-12-29T05:05:54;0.50;;;0.50;;
42420;SDS011;28063;48.140;11.588;2022-12-29T05:08:21;0.50;;;0.50;;
42420;SDS011;28063;48.140;11.588;2022-12-29T05:10:49;1.13;;;0.55;;
42420;SDS011;28063;48.140;11.588;2022-12-29T05:13:15;1.13;;;0.77;;
42420;SDS011;28063;48.140;11.588;2022-12-29T05:15:45;0.90;;;0.30;;
42420;SDS011;28063;48.140;11.588;2022-12-29T05:18:15;2.28;;;0.90;;
42420;SDS011;28063;48.140;11.588;2022-12-29T05:20:41;2.88;;;0.60;;
42420;SDS011;28063;48.140;11.588;2022-12-29T05:23:07;1.73;;;1.25;;
42420;SDS011;28063;48.140;11.588;2022-12-29T05:25:32;0.60;;;0.50;;
42420;SDS011;28063;48.140;11.588;2022-12-29T05:27:58;0.52;;;0.52;;
42420;SDS011;28063;48.140;11.588;2022-12-29T05:30:23;0.75;;;0.57;;
42420;SDS011;28063;48.140;11.588;2022-12-29T05:32:49;0.50;;;0.45;;
42420;SDS011;28063;48.140;11.588;2022-12-29T05:35:15;2.03;;;0.68;;
42420;SDS011;28063;48.140;11.588;2022-12-29T05:37:40;0.50;;;0.50;;
42420;SDS011;28063;48.140;11.588;2022-12-29T05:40:06;1.08;;;0.40;;
42420;SDS011;28063;48.140;11.588;2022-12-29T05:42:33;0.30;;;0.30;;
42420;SDS011;28063;48.140;11.588;2022-12-29T05:44:58;0.95;;;0.75;;
42420;SDS011;28063;48.140;11.588;2022-12-29T05:47:24;0.75;;;0.60;;
42420;SDS011;28063;48.140;11.588;2022-12-29T05:49:49;0.47;;;0.40;;
42420;SDS011;28063;48.140;11.588;2022-12-29T05:52:16;0.30;;;0.30;;
42420;SDS011;28063;48.140;11.588;2022-12-29T05:54:42;0.38;;;0.38;;
42420;SDS011;28063;48.140;11.588;2022-12-29T05:57:07;0.65;;;0.50;;
42420;SDS011;28063;48.140;11.588;2022-12-29T05:59:33;1.20;;;0.52;;
42420;SDS011;28063;48.140;11.588;2022-12-29T06:02:00;0.85;;;0.52;;
42420;SDS011;28063;48.140;11.588;2022-12-29T06:04:25;0.95;;;0.63;;
42420;SDS011;28063;48.140;11.588;2022-12-29T06:06:51;1.60;;;0.60;;
42420;SDS011;28063;48.140;11.588;2022-12-29T06:09:17;0.50;;;0.30;;
42420;SDS011;28063;48.140;11.588;2022-12-29T06:11:42;0.50;;;0.50;;
42420;SDS011;28063;48.140;11.588;2022-12-29T06:14:08;0.85;;;0.40;;
42420;SDS011;28063;48.140;11.588;2022-12-29T06:16:34;1.63;;;0.57;;
42420;SDS011;28063;48.140;11.588;2022-12-29T06:19:00;0.95;;;0.80;;
42420;SDS011;28063;48.140;11.588;2022-12-29T06:21:26;1.63;;;1.15;;
42420;SDS011;28063;48.140;11.588;2022-12-29T06:23:52;1.13;;;0.82;;
42420;SDS011;28063;48.140;11.588;2022-12-29T06:26:18;1.25;;;1.00;;
42420;SDS011;28063;48.140;11.588;2022-12-29T06:28:43;1.27;;;0.60;;
42420;SDS011;28063;48.140;11.588;2022-12-29T06:31:09;1.23;;;0.60;;
42420;SDS011;28063;48.140;11.588;2022-12-29T06:33:36;0.70;;;0.60;;
42420;SDS011;28063;48.140;11.588;2022-12-29T06:36:02;0.98;;;0.60;;
42420;SDS011;28063;48.140;11.588;2022-12-29T06:38:28;0.50;;;0.50;;
42420;SDS011;28063;48.140;11.588;2022-12-29T06:40:53;0.65;;;0.55;;
42420;SDS011;28063;48.140;11.588;2022-12-29T06:43:19;0.85;;;0.55;;
42420;SDS011;28063;48.140;11.588;2022-12-29T06:45:45;0.85;;;0.50;;
42420;SDS011;28063;48.140;11.588;2022-12-29T06:48:10;1.10;;;0.68;;
42420;SDS011;28063;48.140;11.588;2022-12-29T06:50:36;1.35;;;0.70;;
42420;SDS011;28063;48.140;11.588;2022-12-29T06:53:02;0.70;;;0.70;;
42420;SDS011;28063;48.140;11.588;2022-12-29T06:55:28;0.63;;;0.60;;
42420;SDS011;28063;48.140;11.588;2022-12-29T06:57:54;1.65;;;0.90;;
42420;SDS011;28063;48.140;11.588;2022-12-29T07:00:21;0.82;;;0.68;;
42420;SDS011;28063;48.140;11.588;2022-12-29T07:02:47;3.97;;;0.90;;
42420;SDS011;28063;48.140;11.588;2022-12-29T07:05:13;1.08;;;0.73;;
42420;SDS011;28063;48.140;11.588;2022-12-29T07:07:38;0.60;;;0.60;;
42420;SDS011;28063;48.140;11.588;2022-12-29T07:10:04;3.22;;;0.70;;
42420;SDS011;28063;48.140;11.588;2022-12-29T07:12:30;1.38;;;0.68;;
42420;SDS011;28063;48.140;11.588;2022-12-29T07:14:56;1.02;;;0.70;;
42420;SDS011;28063;48.140;11.588;2022-12-29T07:17:21;1.13;;;0.60;;
42420;SDS011;28063;48.140;11.588;2022-12-29T07:19:47;0.90;;;0.70;;
42420;SDS011;28063;48.140;11.588;2022-12-29T07:22:13;0.50;;;0.50;;
42420;SDS011;28063;48.140;11.588;2022-12-29T07:24:38;0.85;;;0.70;;
42420;SDS011;28063;48.140;11.588;2022-12-29T07:27:04;1.02;;;0.70;;
42420;SDS011;28063;48.140;11.588;2022-12-29T07:29:30;2.03;;;0.65;;
42420;SDS011;28063;48.140;11.588;2022-12-29T07:31:56;0.88;;;0.88;;
42420;SDS011;28063;48.140;11.588;2022-12-29T07:34:22;1.25;;;0.95;;
42420;SDS011;28063;48.140;11.588;2022-12-29T07:37:35;0.80;;;0.80;;
42420;SDS011;28063;48.140;11.588;2022-12-29T07:40:08;0.98;;;0.73;;
42420;SDS011;28063;48.140;11.588;2022-12-29T07:42:39;0.63;;;0.63;;
42420;SDS011;28063;48.140;11.588;2022-12-29T07:45:11;1.48;;;0.60;;
42420;SDS011;28063;48.140;11.588;2022-12-29T07:47:40;0.80;;;0.80;;
42420;SDS011;28063;48.140;11.588;2022-12-29T07:50:06;0.90;;;0.80;;
42420;SDS011;28063;48.140;11.588;2022-12-29T07:52:32;0.70;;;0.60;;
42420;SDS011;28063;48.140;11.588;2022-12-29T07:54:57;1.13;;;0.63;;
42420;SDS011;28063;48.140;11.588;2022-12-29T07:57:24;1.98;;;0.93;;
42420;SDS011;28063;48.140;11.588;2022-12-29T07:59:51;1.13;;;0.75;;
42420;SDS011;28063;48.140;11.588;2022-12-29T08:02:26;0.73;;;0.50;;
42420;SDS011;28063;48.140;11.588;2022-12-29T08:05:01;2.05;;;0.70;;
42420;SDS011;28063;48.140;11.588;2022-12-29T08:07:27;1.15;;;0.70;;
42420;SDS011;28063;48.140;11.588;2022-12-29T08:09:53;1.65;;;0.85;;
42420;SDS011;28063;48.140;11.588;2022-12-29T08:12:19;1.00;;;0.90;;
42420;SDS011;28063;48.140;11.588;2022-12-29T08:14:44;1.17;;;0.90;;
42420;SDS011;28063;48.140;11.588;2022-12-29T08:17:10;3.10;;;1.00;;
42420;SDS011;28063;48.140;11.588;2022-12-29T08:19:36;1.70;;;1.17;;
42420;SDS011;28063;48.140;11.588;2022-12-29T08:22:02;2.42;;;1.00;;
42420;SDS011;28063;48.140;11.588;2022-12-29T08:24:28;1.60;;;1.20;;
42420;SDS011;28063;48.140;11.588;2022-12-29T08:26:53;1.92;;;1.00;;
42420;SDS011;28063;48.140;11.588;2022-12-29T08:29:19;1.55;;;0.90;;
42420;SDS011;28063;48.140;11.588;2022-12-29T08:31:46;1.23;;;0.75;;
42420;SDS011;28063;48.140;11.588;2022-12-29T08:34:12;1.77;;;0.82;;
42420;SDS011;28063;48.140;11.588;2022-12-29T08:36:37;2.63;;;0.90;;
42420;SDS011;28063;48.140;11.588;2022-12-29T08:39:08;1.83;;;0.70;;
42420;SDS011;28063;48.140;11.588;2022-12-29T08:41:34;0.70;;;0.70;;
42420;SDS011;28063;48.140;11.588;2022-12-29T08:44:06;1.52;;;0.80;;
42420;SDS011;28063;48.140;11.588;2022-12-29T08:46:32;0.90;;;0.68;;
42420;SDS011;28063;48.140;11.588;2022-12-29T08:48:59;1.77;;;0.75;;
42420;SDS011;28063;48.140;11.588;2022-12-29T08:51:38;1.58;;;0.55;;
42420;SDS011;28063;48.140;11.588;2022-12-29T08:54:33;1.02;;;0.93;;
42420;SDS011;28063;48.140;11.588;2022-12-29T08:57:00;1.70;;;0.70;;
42420;SDS011;28063;48.140;11.588;2022-12-29T09:00:06;3.85;;;1.02;;
42420;SDS011;28063;48.140;11.588;2022-12-29T09:02:36;1.55;;;1.05;;
42420;SDS011;28063;48.140;11.588;2022-12-29T09:05:02;0.95;;;0.85;;
42420;SDS011;28063;48.140;11.588;2022-12-29T09:07:28;0.93;;;0.60;;
42420;SDS011;28063;48.140;11.588;2022-12-29T09:09:53;3.08;;;1.30;;
42420;SDS011;28063;48.140;11.588;2022-12-29T09:12:19;0.90;;;0.77;;
42420;SDS011;28063;48.140;11.588;2022-12-29T09:14:48;0.70;;;0.50;;
42420;SDS011;28063;48.140;11.588;2022-12-29T09:17:13;0.63;;;0.57;;
42420;SDS011;28063;48.140;11.588;2022-12-29T09:19:57;1.90;;;1.08;;
42420;SDS011;28063;48.140;11.588;2022-12-29T09:22:23;1.48;;;1.10;;
42420;SDS011;28063;48.140;11.588;2022-12-29T09:24:49;1.85;;;1.20;;
42420;SDS011;28063;48.140;11.588;2022-12-29T09:27:14;2.45;;;1.85;;
42420;SDS011;28063;48.140;11.588;2022-12-29T09:29:40;3.80;;;2.60;;
42420;SDS011;28063;48.140;11.588;2022-12-29T09:32:06;1.98;;;1.20;;
42420;SDS011;28063;48.140;11.588;2022-12-29T09:34:32;1.52;;;1.42;;
42420;SDS011;28063;48.140;11.588;2022-12-29T09:36:58;1.88;;;1.05;;
42420;SDS011;28063;48.140;11.588;2022-12-29T09:39:23;0.98;;;0.85;;
42420;SDS011;28063;48.140;11.588;2022-12-29T09:41:50;0.93;;;0.65;;
42420;SDS011;28063;48.140;11.588;2022-12-29T09:47:19;1.13;;;0.80;;
42420;SDS011;28063;48.140;11.588;2022-12-29T09:49:48;0.95;;;0.63;;
42420;SDS011;28063;48.140;11.588;2022-12-29T09:57:33;1.15;;;0.80;;
42420;SDS011;28063;48.140;11.588;2022-12-29T10:03:02;1.58;;;0.90;;
42420;SDS011;28063;48.140;11.588;2022-12-29T10:08:44;1.95;;;0.77;;
42420;SDS011;28063;48.140;11.588;2022-12-29T10:12:01;3.25;;;0.93;;
42420;SDS011;28063;48.140;11.588;2022-12-29T10:17:22;2.30;;;0.80;;
42420;SDS011;28063;48.140;11.588;2022-12-29T10:25:19;1.20;;;1.02;;
42420;SDS011;28063;48.140;11.588;2022-12-29T10:27:48;0.93;;;0.70;;
42420;SDS011;28063;48.140;11.588;2022-12-29T10:30:15;0.80;;;0.75;;
42420;SDS011;28063;48.140;11.588;2022-12-29T10:32:49;0.68;;;0.60;;
42420;SDS011;28063;48.140;11.588;2022-12-29T10:35:20;1.25;;;0.80;;
42420;SDS011;28063;48.140;11.588;2022-12-29T10:38:05;1.60;;;1.10;;
42420;SDS011;28063;48.140;11.588;2022-12-29T10:40:56;0.75;;;0.68;;
42420;SDS011;28063;48.140;11.588;2022-12-29T10:43:54;0.95;;;0.90;;
42420;SDS011;28063;48.140;11.588;2022-12-29T10:46:23;1.55;;;1.10;;
42420;SDS011;28063;48.140;11.588;2022-12-29T10:48:54;1.08;;;0.98;;
42420;SDS011;28063;48.140;11.588;2022-12-29T10:51:26;1.77;;;0.95;;
42420;SDS011;28063;48.140;11.588;2022-12-29T10:53:57;0.73;;;0.70;;
42420;SDS011;28063;48.140;11.588;2022-12-29T10:56:35;0.95;;;0.80;;
42420;SDS011;28063;48.140;11.588;2022-12-29T11:01:39;1.25;;;1.10;;
42420;SDS011;28063;48.140;11.588;2022-12-29T11:07:15;1.08;;;0.70;;
42420;SDS011;28063;48.140;11.588;2022-12-29T11:09:42;1.00;;;0.80;;
42420;SDS011;28063;48.140;11.588;2022-12-29T11:12:25;1.60;;;1.00;;
42420;SDS011;28063;48.140;11.588;2022-12-29T11:17:47;3.00;;;1.00;;
42420;SDS011;28063;48.140;11.588;2022-12-29T11:20:37;2.55;;;1.92;;
42420;SDS011;28063;48.140;11.588;2022-12-29T11:23:04;1.70;;;1.38;;
42420;SDS011;28063;48.140;11.588;2022-12-29T11:25:46;1.15;;;0.80;;
42420;SDS011;28063;48.140;11.588;2022-12-29T11:28:16;4.05;;;1.10;;
42420;SDS011;28063;48.140;11.588;2022-12-29T11:30:42;2.50;;;0.98;;
42420;SDS011;28063;48.140;11.588;2022-12-29T11:33:08;1.33;;;1.17;;
42420;SDS011;28063;48.140;11.588;2022-12-29T11:35:35;1.33;;;1.02;;
42420;SDS011;28063;48.140;11.588;2022-12-29T11:38:05;1.50;;;0.65;;
42420;SDS011;28063;48.140;11.588;2022-12-29T11:40:41;1.50;;;0.82;;
42420;SDS011;28063;48.140;11.588;2022-12-29T11:43:06;2.72;;;0.88;;
42420;SDS011;28063;48.140;11.588;2022-12-29T11:46:01;0.80;;;0.80;;
42420;SDS011;28063;48.140;11.588;2022-12-29T11:48:39;1.17;;;0.80;;
42420;SDS011;28063;48.140;11.588;2022-12-29T11:51:06;2.83;;;0.80;;
42420;SDS011;28063;48.140;11.588;2022-12-29T11:53:38;2.45;;;0.90;;
42420;SDS011;28063;48.140;11.588;2022-12-29T11:56:22;1.50;;;0.90;;
42420;SDS011;28063;48.140;11.588;2022-12-29T12:02:19;2.08;;;0.73;;
42420;SDS011;28063;48.140;11.588;2022-12-29T12:04:53;0.80;;;0.80;;
42420;SDS011;28063;48.140;11.588;2022-12-29T12:10:12;1.67;;;0.98;;
42420;SDS011;28063;48.140;11.588;2022-12-29T12:16:08;1.60;;;0.80;;
42420;SDS011;28063;48.140;11.588;2022-12-29T12:21:17;1.40;;;1.00;;
42420;SDS011;28063;48.140;11.588;2022-12-29T12:32:20;0.93;;;0.70;;
42420;SDS011;28063;48.140;11.588;2022-12-29T12:34:47;0.95;;;0.85;;
42420;SDS011;28063;48.140;11.588;2022-12-29T12:37:27;2.95;;;1.02;;
42420;SDS011;28063;48.140;11.588;2022-12-29T12:40:26;1.88;;;1.08;;
42420;SDS011;28063;48.140;11.588;2022-12-29T12:48:33;1.15;;;0.80;;
42420;SDS011;28063;48.140;11.588;2022-12-29T12:51:22;1.30;;;1.13;;
42420;SDS011;28063;48.140;11.588;2022-12-29T12:54:20;2.78;;;1.00;;
42420;SDS011;28063;48.140;11.588;2022-12-29T12:59:56;1.60;;;1.20;;
42420;SDS011;28063;48.140;11.588;2022-12-29T13:02:49;2.45;;;1.42;;
42420;SDS011;28063;48.140;11.588;2022-12-29T13:19:03;6.45;;;1.23;;
42420;SDS011;28063;48.140;11.588;2022-12-29T13:26:54;4.20;;;1.10;;
42420;SDS011;28063;48.140;11.588;2022-12-29T13:29:36;1.63;;;0.93;;
42420;SDS011;28063;48.140;11.588;2022-12-29T13:34:59;1.98;;;1.13;;
42420;SDS011;28063;48.140;11.588;2022-12-29T13:37:33;1.80;;;0.70;;
42420;SDS011;28063;48.140;11.588;2022-12-29T13:40:15;1.73;;;1.15;;
42420;SDS011;28063;48.140;11.588;2022-12-29T13:42:44;1.27;;;0.80;;
42420;SDS011;28063;48.140;11.588;2022-12-29T13:45:13;0.90;;;0.80;;
42420;SDS011;28063;48.140;11.588;2022-12-29T13:47:49;1.15;;;0.90;;
42420;SDS011;28063;48.140;11.588;2022-12-29T13:50:31;3.13;;;1.10;;
42420;SDS011;28063;48.140;11.588;2022-12-29T13:55:58;1.67;;;1.35;;
42420;SDS011;28063;48.140;11.588;2022-12-29T13:58:37;2.10;;;1.23;;
42420;SDS011;28063;48.140;11.588;2022-12-29T14:01:30;2.63;;;1.80;;
42420;SDS011;28063;48.140;11.588;2022-12-29T14:04:02;2.90;;;1.80;;
42420;SDS011;28063;48.140;11.588;2022-12-29T14:06:35;1.65;;;1.23;;
42420;SDS011;28063;48.140;11.588;2022-12-29T14:09:05;3.83;;;2.03;;
42420;SDS011;28063;48.140;11.588;2022-12-29T14:11:51;6.57;;;1.70;;
42420;SDS011;28063;48.140;11.588;2022-12-29T14:14:19;3.28;;;1.27;;
42420;SDS011;28063;48.140;11.588;2022-12-29T14:16:46;4.03;;;1.48;;
42420;SDS011;28063;48.140;11.588;2022-12-29T14:19:38;4.60;;;1.85;;
42420;SDS011;28063;48.140;11.588;2022-12-29T14:22:06;3.00;;;1.77;;
42420;SDS011;28063;48.140;11.588;2022-12-29T14:24:43;4.18;;;1.63;;
42420;SDS011;28063;48.140;11.588;2022-12-29T14:34:46;7.30;;;2.17;;
42420;SDS011;28063;48.140;11.588;2022-12-29T14:37:23;3.72;;;1.20;;
42420;SDS011;28063;48.140;11.588;2022-12-29T14:42:50;2.65;;;1.08;;
42420;SDS011;28063;48.140;11.588;2022-12-29T14:47:46;7.97;;;2.33;;
42420;SDS011;28063;48.140;11.588;2022-12-29T14:50:15;4.90;;;1.90;;
42420;SDS011;28063;48.140;11.588;2022-12-29T14:52:57;18.02;;;3.65;;
42420;SDS011;28063;48.140;11.588;2022-12-29T14:55:40;11.55;;;4.25;;
42420;SDS011;28063;48.140;11.588;2022-12-29T14:58:16;7.35;;;2.90;;
42420;SDS011;28063;48.140;11.588;2022-12-29T15:00:46;7.95;;;2.92;;
42420;SDS011;28063;48.140;11.588;2022-12-29T15:03:28;2.30;;;1.65;;
42420;SDS011;28063;48.140;11.588;2022-12-29T15:06:06;2.28;;;1.67;;
42420;SDS011;28063;48.140;11.588;2022-12-29T15:08:37;4.00;;;1.52;;
42420;SDS011;28063;48.140;11.588;2022-12-29T15:11:23;2.60;;;1.77;;
42420;SDS011;28063;48.140;11.588;2022-12-29T15:13:56;3.58;;;1.90;;
42420;SDS011;28063;48.140;11.588;2022-12-29T15:16:23;4.00;;;2.45;;
42420;SDS011;28063;48.140;11.588;2022-12-29T15:18:51;5.13;;;2.05;;
42420;SDS011;28063;48.140;11.588;2022-12-29T15:21:17;4.40;;;2.00;;
42420;SDS011;28063;48.140;11.588;2022-12-29T15:23:50;1.88;;;1.50;;
42420;SDS011;28063;48.140;11.588;2022-12-29T15:26:16;4.07;;;1.70;;
42420;SDS011;28063;48.140;11.588;2022-12-29T15:28:47;3.30;;;1.95;;
42420;SDS011;28063;48.140;11.588;2022-12-29T15:31:21;2.95;;;1.80;;
42420;SDS011;28063;48.140;11.588;2022-12-29T15:33:50;3.13;;;1.55;;
42420;SDS011;28063;48.140;11.588;2022-12-29T15:36:27;2.83;;;1.88;;
42420;SDS011;28063;48.140;11.588;2022-12-29T15:38:54;2.78;;;1.83;;
42420;SDS011;28063;48.140;11.588;2022-12-29T15:44:20;4.32;;;1.50;;
42420;SDS011;28063;48.140;11.588;2022-12-29T15:46:49;2.85;;;1.80;;
42420;SDS011;28063;48.140;11.588;2022-12-29T15:49:15;3.22;;;1.50;;
42420;SDS011;28063;48.140;11.588;2022-12-29T15:51:41;2.13;;;1.63;;
42420;SDS011;28063;48.140;11.588;2022-12-29T15:54:18;1.60;;;1.40;;
42420;SDS011;28063;48.140;11.588;2022-12-29T15:56:46;1.88;;;1.48;;
42420;SDS011;28063;48.140;11.588;2022-12-29T15:59:24;1.77;;;1.30;;
42420;SDS011;28063;48.140;11.588;2022-12-29T16:02:07;1.70;;;1.45;;
42420;SDS011;28063;48.140;11.588;2022-12-29T16:04:35;4.30;;;1.90;;
42420;SDS011;28063;48.140;11.588;2022-12-29T16:07:02;4.78;;;1.52;;
42420;SDS011;28063;48.140;11.588;2022-12-29T16:11:58;2.95;;;1.92;;
42420;SDS011;28063;48.140;11.588;2022-12-29T16:14:30;3.15;;;2.08;;
42420;SDS011;28063;48.140;11.588;2022-12-29T16:17:00;4.00;;;2.65;;
42420;SDS011;28063;48.140;11.588;2022-12-29T16:19:29;2.85;;;1.60;;
42420;SDS011;28063;48.140;11.588;2022-12-29T16:22:03;1.88;;;1.50;;
42420;SDS011;28063;48.140;11.588;2022-12-29T16:24:36;1.88;;;1.60;;
42420;SDS011;28063;48.140;11.588;2022-12-29T16:27:09;2.28;;;1.70;;
42420;SDS011;28063;48.140;11.588;2022-12-29T16:29:35;3.35;;;1.60;;
42420;SDS011;28063;48.140;11.588;2022-12-29T16:32:01;2.63;;;1.70;;
42420;SDS011;28063;48.140;11.588;2022-12-29T16:39:54;2.40;;;1.20;;
42420;SDS011;28063;48.140;11.588;2022-12-29T16:42:33;1.85;;;1.33;;
42420;SDS011;28063;48.140;11.588;2022-12-29T16:45:08;2.10;;;1.60;;
42420;SDS011;28063;48.140;11.588;2022-12-29T16:47:53;3.03;;;1.10;;
42420;SDS011;28063;48.140;11.588;2022-12-29T16:53:47;2.78;;;1.92;;
42420;SDS011;28063;48.140;11.588;2022-12-29T16:56:15;2.60;;;1.40;;
42420;SDS011;28063;48.140;11.588;2022-12-29T16:58:48;3.08;;;1.40;;
42420;SDS011;28063;48.140;11.588;2022-12-29T17:01:37;2.30;;;1.67;;
42420;SDS011;28063;48.140;11.588;2022-12-29T17:04:07;1.67;;;1.30;;
42420;SDS011;28063;48.140;11.588;2022-12-29T17:06:36;1.50;;;1.13;;
42420;SDS011;28063;48.140;11.588;2022-12-29T17:09:02;2.38;;;1.40;;
42420;SDS011;28063;48.140;11.588;2022-12-29T17:11:40;1.42;;;1.17;;
42420;SDS011;28063;48.140;11.588;2022-12-29T17:20:17;3.95;;;1.90;;
42420;SDS011;28063;48.140;11.588;2022-12-29T17:22:47;4.53;;;1.80;;